createdAt,value
2022-11-29T00:01:05.614Z,3.91
2022-11-29T00:03:32.889Z,3.60
2022-11-29T00:06:35.593Z,3.35
2022-11-29T00:09:06.484Z,3.84
2022-11-29T00:11:54.221Z,4.19
2022-11-29T00:14:21.420Z,4.27
2022-11-29T00:16:56.241Z,4.09
2022-11-29T00:19:23.254Z,3.89
2022-11-29T00:21:50.265Z,3.61
2022-11-29T00:24:17.327Z,3.33
2022-11-29T00:26:44.253Z,3.73
2022-11-29T00:29:12.813Z,4.21
2022-11-29T00:31:40.082Z,4.28
2022-11-29T00:34:07.178Z,4.04
2022-11-29T00:36:34.738Z,3.84
2022-11-29T00:39:02.171Z,3.64
2022-11-29T00:41:29.422Z,3.38
2022-11-29T00:43:56.404Z,3.73
2022-11-29T00:46:23.918Z,4.35
2022-11-29T00:48:50.929Z,4.45
2022-11-29T00:51:17.842Z,4.27
2022-11-29T00:53:44.803Z,3.95
2022-11-29T00:56:12.011Z,3.69
2022-11-29T00:58:39.088Z,3.49
2022-11-29T01:01:06.180Z,3.87
2022-11-29T01:04:08.148Z,4.33
2022-11-29T01:06:37.332Z,4.47
2022-11-29T01:09:05.217Z,4.29
2022-11-29T01:11:32.241Z,4.01
2022-11-29T01:14:00.557Z,3.72
2022-11-29T01:16:28.852Z,3.45
2022-11-29T01:18:56.468Z,3.82
2022-11-29T01:21:24.244Z,4.17
2022-11-29T01:23:52.068Z,4.18
2022-11-29T01:26:21.595Z,4.06
2022-11-29T01:28:49.538Z,3.79
2022-11-29T01:31:22.610Z,3.58
2022-11-29T01:33:52.436Z,3.27
2022-11-29T01:36:19.463Z,3.81
2022-11-29T01:38:46.643Z,4.42
2022-11-29T01:41:20.524Z,4.48
2022-11-29T01:44:07.353Z,4.26
2022-11-29T01:46:36.233Z,3.97
2022-11-29T01:49:16.431Z,3.75
2022-11-29T01:51:50.495Z,3.49
2022-11-29T01:54:18.206Z,3.97
2022-11-29T01:56:45.551Z,4.46
2022-11-29T01:59:14.613Z,4.52
2022-11-29T02:01:42.317Z,4.35
2022-11-29T02:04:09.377Z,4.06
2022-11-29T02:06:36.376Z,3.83
2022-11-29T02:09:03.895Z,3.54
2022-11-29T02:11:31.044Z,3.33
2022-11-29T02:13:57.972Z,3.75
2022-11-29T02:16:28.483Z,4.19
2022-11-29T02:18:58.970Z,4.31
2022-11-29T02:21:32.523Z,4.22
2022-11-29T02:24:15.005Z,4.04
2022-11-29T02:27:13.017Z,3.85
2022-11-29T02:29:58.700Z,3.64
2022-11-29T02:32:44.405Z,3.49
2022-11-29T02:35:45.973Z,4.27
2022-11-29T02:38:13.036Z,4.96
2022-11-29T02:41:07.944Z,4.95
2022-11-29T02:44:11.233Z,4.59
2022-11-29T02:47:12.624Z,4.17
2022-11-29T02:49:51.532Z,3.88
2022-11-29T02:52:18.532Z,3.65
2022-11-29T02:55:06.273Z,4.14
2022-11-29T02:57:48.373Z,4.84
2022-11-29T03:00:16.564Z,4.87
2022-11-29T03:02:51.715Z,4.69
2022-11-29T03:05:28.330Z,4.41
2022-11-29T03:07:57.963Z,4.16
2022-11-29T03:10:34.835Z,3.95
2022-11-29T03:13:03.446Z,3.78
2022-11-29T03:15:38.791Z,4.34
2022-11-29T03:18:33.195Z,5.00
2022-11-29T03:21:24.736Z,4.93
2022-11-29T03:23:54.963Z,4.71
2022-11-29T03:26:40.889Z,4.47
2022-11-29T03:29:30.185Z,4.17
2022-11-29T03:32:00.202Z,3.89
2022-11-29T03:35:02.678Z,3.62
2022-11-29T03:37:46.025Z,4.09
2022-11-29T03:40:18.093Z,4.43
2022-11-29T03:42:51.813Z,4.39
2022-11-29T03:45:30.317Z,3.84
2022-11-29T03:48:10.276Z,3.48
2022-11-29T03:50:46.383Z,3.34
2022-11-29T03:53:33.831Z,3.21
2022-11-29T03:56:01.553Z,3.86
2022-11-29T03:58:49.855Z,4.28
2022-11-29T04:01:22.874Z,4.38
2022-11-29T04:04:03.027Z,4.11
2022-11-29T04:06:52.463Z,3.77
2022-11-29T04:09:41.167Z,3.40
2022-11-29T04:12:22.584Z,3.20
2022-11-29T04:14:49.616Z,3.86
2022-11-29T04:17:19.521Z,4.34
2022-11-29T04:20:01.940Z,4.38
2022-11-29T04:22:41.586Z,4.13
2022-11-29T04:25:11.696Z,3.90
2022-11-29T04:28:32.335Z,3.65
2022-11-29T04:30:59.261Z,3.44
2022-11-29T04:33:53.635Z,4.15
2022-11-29T04:36:29.881Z,4.81
2022-11-29T04:39:16.774Z,4.76
2022-11-29T04:42:20.986Z,4.37
2022-11-29T04:45:09.926Z,3.83
2022-11-29T04:48:19.149Z,3.55
2022-11-29T04:51:14.518Z,3.03
2022-11-29T04:53:48.777Z,3.91
2022-11-29T04:56:45.192Z,4.34
2022-11-29T04:59:50.132Z,4.05
2022-11-29T05:02:32.524Z,3.81
2022-11-29T05:05:56.547Z,3.65
2022-11-29T05:09:05.805Z,3.36
2022-11-29T05:12:08.459Z,3.20
2022-11-29T05:14:57.813Z,4.02
2022-11-29T05:17:31.647Z,4.44
2022-11-29T05:20:29.669Z,4.27
2022-11-29T05:23:11.975Z,4.00
2022-11-29T05:29:53.853Z,3.22
2022-11-29T05:32:35.609Z,2.93
2022-11-29T05:35:36.005Z,3.52
2022-11-29T05:38:07.352Z,4.17
2022-11-29T05:40:42.071Z,4.08
2022-11-29T05:43:25.069Z,3.92
2022-11-29T05:46:17.082Z,3.59
2022-11-29T05:49:03.752Z,3.27
2022-11-29T05:51:50.749Z,3.13
2022-11-29T05:54:31.448Z,3.80
2022-11-29T05:57:32.044Z,4.29
2022-11-29T05:59:59.007Z,4.30
2022-11-29T06:02:54.097Z,4.09
2022-11-29T06:05:46.907Z,3.79
2022-11-29T06:08:27.513Z,3.44
2022-11-29T06:11:02.830Z,3.19
2022-11-29T06:13:36.325Z,3.70
2022-11-29T06:16:39.065Z,4.16
2022-11-29T06:19:45.816Z,4.02
2022-11-29T06:22:37.859Z,3.59
2022-11-29T06:25:26.543Z,3.43
2022-11-29T06:28:24.896Z,3.25
2022-11-29T06:31:27.780Z,3.09
2022-11-29T06:34:09.441Z,2.90
2022-11-29T06:36:36.417Z,3.71
2022-11-29T06:39:03.656Z,4.29
2022-11-29T06:41:31.191Z,4.29
2022-11-29T06:43:58.681Z,3.97
2022-11-29T16:26:11.941Z,4.56
2022-11-29T16:28:43.090Z,4.39
2022-11-29T16:31:12.372Z,4.98
2022-11-29T16:33:41.779Z,5.59
2022-11-29T16:36:22.885Z,5.70
2022-11-29T16:38:54.029Z,5.52
2022-11-29T16:41:31.814Z,5.25
2022-11-29T16:43:58.290Z,5.01
2022-11-29T16:46:26.768Z,4.80
2022-11-29T16:48:54.248Z,4.59
2022-11-29T16:51:32.732Z,4.42
2022-11-29T16:54:21.585Z,4.99
2022-11-29T16:56:49.150Z,5.65
2022-11-29T16:59:24.736Z,5.69
2022-11-29T17:01:55.304Z,5.49
2022-11-29T17:04:23.857Z,5.24
2022-11-29T17:06:53.347Z,4.97
2022-11-29T17:09:22.863Z,4.72
2022-11-29T17:11:49.205Z,4.47
2022-11-29T17:14:15.554Z,4.92
2022-11-29T17:16:42.450Z,5.51
2022-11-29T17:19:12.381Z,5.59
2022-11-29T17:21:38.952Z,5.35
2022-11-29T17:24:05.744Z,5.12
2022-11-29T17:26:32.041Z,4.87
2022-11-29T17:28:58.323Z,4.68
2022-11-29T17:31:24.800Z,4.49
2022-11-29T17:33:51.641Z,4.87
2022-11-29T17:36:19.044Z,5.47
2022-11-29T17:39:04.470Z,5.54
2022-11-29T17:41:32.206Z,5.24
2022-11-29T17:43:58.677Z,4.96
2022-11-29T17:46:25.826Z,4.70
2022-11-29T17:48:52.487Z,4.50
2022-11-29T17:51:50.161Z,4.37
2022-11-29T17:54:08.314Z,4.96
2022-11-29T17:56:34.763Z,5.48
2022-11-29T17:59:01.845Z,5.53
2022-11-29T18:01:30.320Z,5.36
2022-11-29T18:03:58.476Z,5.10
2022-11-29T18:06:26.298Z,4.80
2022-11-29T18:08:53.904Z,4.57
2022-11-29T18:11:22.432Z,4.31
2022-11-29T18:13:49.050Z,4.75
2022-11-29T18:16:17.261Z,5.30
2022-11-29T18:18:43.943Z,5.38
2022-11-29T18:21:10.659Z,5.23
2022-11-29T18:23:38.315Z,5.00
2022-11-29T18:26:11.946Z,4.66
2022-11-29T18:28:38.957Z,4.42
2022-11-29T18:31:09.640Z,4.16
2022-11-29T18:33:36.509Z,4.66
2022-11-29T18:36:10.372Z,5.22
2022-11-29T18:38:37.456Z,5.26
2022-11-29T18:41:11.929Z,5.07
2022-11-29T18:43:40.118Z,4.78
2022-11-29T18:46:10.635Z,4.53
2022-11-29T18:48:37.130Z,4.23
2022-11-29T18:51:04.191Z,4.05
2022-11-29T18:53:32.668Z,4.51
2022-11-29T18:56:04.104Z,4.95
2022-11-29T18:58:30.741Z,4.98
2022-11-29T19:01:08.253Z,4.74
2022-11-29T19:03:35.954Z,4.52
2022-11-29T19:06:04.321Z,4.18
2022-11-29T19:08:30.759Z,3.84
2022-11-29T19:10:57.399Z,4.31
2022-11-29T19:13:23.714Z,5.02
2022-11-29T19:15:53.859Z,5.22
2022-11-29T19:18:21.211Z,5.11
2022-11-29T19:20:47.939Z,4.93
2022-11-29T19:23:15.784Z,4.71
2022-11-29T19:25:42.467Z,4.52
2022-11-29T19:28:13.861Z,4.32
2022-11-29T19:30:40.859Z,4.80
2022-11-29T19:33:07.213Z,5.37
2022-11-29T19:35:34.068Z,5.46
2022-11-29T19:38:00.401Z,5.33
2022-11-29T19:40:27.399Z,5.08
2022-11-29T19:42:53.672Z,4.81
2022-11-29T19:45:21.230Z,4.61
2022-11-29T19:47:47.571Z,4.44
2022-11-29T19:50:13.961Z,4.30
2022-11-29T19:52:40.214Z,4.84
2022-11-29T19:55:06.761Z,5.53
2022-11-29T19:57:33.205Z,5.67
2022-11-29T19:59:59.601Z,5.54
2022-11-29T20:02:25.993Z,5.26
2022-11-29T20:04:52.480Z,4.99
2022-11-29T20:07:18.746Z,4.70
2022-11-29T20:09:45.830Z,4.46
2022-11-29T20:12:12.601Z,4.26
2022-11-29T20:14:38.961Z,4.80
2022-11-29T20:17:05.469Z,5.49
2022-11-29T20:19:31.713Z,5.64
2022-11-29T20:21:58.100Z,5.39
2022-11-29T20:24:24.329Z,5.01
2022-11-29T20:27:02.463Z,4.82
2022-11-29T20:29:30.098Z,4.61
2022-11-29T20:31:56.530Z,4.37
2022-11-29T20:34:23.345Z,4.79
2022-11-29T20:37:05.101Z,5.32
2022-11-29T20:39:36.818Z,5.19
2022-11-29T20:42:09.280Z,4.96
2022-11-29T20:44:37.388Z,4.66
2022-11-29T20:47:17.455Z,4.50
2022-11-29T20:49:44.318Z,4.28
2022-11-29T20:52:22.269Z,4.14
2022-11-29T20:54:48.449Z,4.75
2022-11-29T20:57:14.746Z,5.24
2022-11-29T20:59:41.286Z,5.35
2022-11-29T21:02:07.593Z,5.22
2022-11-29T21:04:33.947Z,4.99
2022-11-29T21:07:00.350Z,4.72
2022-11-29T21:09:28.531Z,4.52
2022-11-29T21:11:55.158Z,4.28
2022-11-29T21:14:21.848Z,4.72
2022-11-29T21:16:48.714Z,5.23
2022-11-29T21:19:18.985Z,5.36
2022-11-29T21:22:02.818Z,5.04
2022-11-29T21:24:55.566Z,4.76
2022-11-29T21:27:28.192Z,4.54
2022-11-29T21:29:55.203Z,4.35
2022-11-29T21:32:23.364Z,4.19
2022-11-29T21:34:49.695Z,4.65
2022-11-29T21:37:17.101Z,5.19
2022-11-29T21:39:43.491Z,5.23
2022-11-29T21:42:10.173Z,5.14
2022-11-29T21:44:36.496Z,4.89
2022-11-29T21:47:02.864Z,4.73
2022-11-29T21:49:30.241Z,4.53
2022-11-29T21:51:59.434Z,4.30
2022-11-29T21:54:25.966Z,4.72
2022-11-29T21:56:52.576Z,5.35
2022-11-29T21:59:19.224Z,5.42
2022-11-29T22:01:49.335Z,5.24
2022-11-29T22:04:16.241Z,4.99
2022-11-29T22:06:42.515Z,4.72
2022-11-29T22:09:09.513Z,4.55
2022-11-29T22:11:36.248Z,4.39
2022-11-29T22:14:13.560Z,4.25
2022-11-29T22:16:41.644Z,4.84
2022-11-29T22:19:08.581Z,5.47
2022-11-29T22:21:34.993Z,5.62
2022-11-29T22:24:01.241Z,5.52
2022-11-29T22:26:28.208Z,5.33
2022-11-29T22:28:54.797Z,5.08
2022-11-29T22:31:21.366Z,4.89
2022-11-29T22:33:47.755Z,4.72
2022-11-29T22:36:14.221Z,4.52
2022-11-29T22:38:40.469Z,4.92
2022-11-29T22:41:13.001Z,5.48
2022-11-29T22:43:39.825Z,5.57
2022-11-29T22:46:20.226Z,5.43
2022-11-29T22:48:47.665Z,5.21
2022-11-29T22:51:15.807Z,4.98
2022-11-29T22:53:48.468Z,4.75
2022-11-29T22:56:17.054Z,4.58
2022-11-29T22:58:44.741Z,4.43
2022-11-29T23:01:15.901Z,4.97
2022-11-29T23:03:43.430Z,5.67
2022-11-29T23:06:11.826Z,5.77
2022-11-29T23:08:38.360Z,5.59
2022-11-29T23:11:05.506Z,5.35
2022-11-29T23:13:36.238Z,5.11
2022-11-29T23:16:03.453Z,4.89
2022-11-29T23:18:30.006Z,4.69
2022-11-29T23:21:03.940Z,4.51
2022-11-29T23:23:30.443Z,5.04
2022-11-29T23:25:56.735Z,5.67
2022-11-29T23:28:23.820Z,5.75
2022-11-29T23:30:50.581Z,5.54
2022-11-29T23:33:16.891Z,5.20
2022-11-29T23:35:43.409Z,4.89
2022-11-29T23:38:09.706Z,4.65
2022-11-29T23:40:36.006Z,4.41
2022-11-29T23:43:02.555Z,4.89
2022-11-29T23:45:28.952Z,5.55
2022-11-29T23:47:55.646Z,5.70
2022-11-29T23:50:22.736Z,5.56
2022-11-29T23:52:55.410Z,5.36
2022-11-29T23:55:22.257Z,5.13
2022-11-29T23:57:48.731Z,4.90
